Ely, MN

4:23 AM CDT on August 05, 2015 (GMT -0500)
Ely Municipal | | Change Station
CLOSE
Current Station
Airport
Location: Ely,
Elevation: 1453 ft
Nearby Weather Stations

Elev 1453 ft 47.82 °N, 91.83 °W | Updated 10 minutes ago

Clear
Clear
45 °F
Feels Like 45 °F
N
0
Wind Variable Wind from North

Today
High -- | Low -- °F
--% Chance of Precip.
Yesterday
High -- | Low -- °F
Precip. -- in
5:49 AM 8:37 PM
Waning Gibbous, 69% visible
Pressure 30.10 in
Visibility 1.5 miles
Clouds
Dew Point 43 °F
Humidity 93%
Rainfall 0.00 in
Snow Depth Not available.
UV Not available.
Pollen 5.50 out of 12
Air Quality Not available.
Flu Activity Not available.
METAR KELO 050913Z AUTO 00000KT 1 1/2SM BR VV007 07/06 A3010 RMK AO2 VIS 3/4V3

More Conditions Fewer Conditions

Pressure 30.10 in
Visibility 1.5 miles
Clouds
Dew Point 43 °F
Humidity 93%
Rainfall 0.00 in
Snow Depth Not available.
UV Not available.
Pollen 5.50 out of 12
Air Quality Not available.
Flu Activity Not available.
METAR KELO 050913Z AUTO 00000KT 1 1/2SM BR VV007 07/06 A3010 RMK AO2 VIS 3/4V3

More Conditions Fewer Conditions

10-Day Weather Forecast

×

Almanac

Astronomy

Aug. 05, 2015 Rise Set
Actual Time
Civil Twilight
Nautical Twilight
Astronomical Twilight
Moon
Length of Visible Light
Length of Day
Tomorrow will be .
, % of the Moon is Illuminated

Today's Extremes

State Highs State Lows

Community

WunderPhotos

Upload Photos

1,844,105 photos uploaded!

WunderBlogs® & News

Nearby

Air Quality

  Air Quality AQ Index Pollutant
Not available.

Snow Depth

Station Depth Elevation

Earthquake Activity

City Distance Mag. Time & Date
Minimum magnitude displayed is 2.5.

Coastal Water Temperatures

Place Temperature

Stations

Nearby Weather Stations

Station Location Temp. Windchill Dew Point Humidity Wind Precip. Elev Updated Type